Time;durP1;ratioP1;P1;durP2;ratioP2;P2;SDS_P1;SDS_P2;PMS_P1;PMS_P2;Temp;Humidity;BMP_temperature;BMP_pressure;BME280_temperature;BME280_humidity;BME280_pressure;Samples;Min_cycle;Max_cycle;Signal;HPM_P1;HPM_P2
2021/05/22 00:00:14;;;;;;;0.70;0.70;;;;;;;10.40;89.09;95049.56;4954351;28;20854;-85
2021/05/22 00:02:40;;;;;;;0.70;0.70;;;;;;;10.41;89.55;95056.31;4954521;28;20224;-84
2021/05/22 00:05:07;;;;;;;0.70;0.70;;;;;;;10.40;89.49;95067.59;4954027;29;20209;-85
2021/05/22 00:07:33;;;;;;;8.70;7.20;;;;;;;10.44;91.10;95065.44;4954105;28;20229;-86
2021/05/22 00:09:59;;;;;;;2.40;2.20;;;;;;;10.37;90.19;95053.34;4954642;28;20213;-85
2021/05/22 00:12:26;;;;;;;0.80;0.80;;;;;;;10.48;89.19;95059.72;4953422;28;20223;-84
2021/05/22 00:14:52;;;;;;;0.87;0.70;;;;;;;10.40;89.46;95054.72;4954445;28;20209;-87
2021/05/22 00:17:18;;;;;;;0.60;0.60;;;;;;;10.42;89.08;95069.97;4954070;28;20197;-87
2021/05/22 00:19:44;;;;;;;0.70;0.70;;;;;;;10.31;88.84;95082.38;4953597;28;20204;-85
2021/05/22 00:22:10;;;;;;;0.93;0.70;;;;;;;10.26;89.04;95082.13;4953574;28;20217;-86
2021/05/22 00:24:36;;;;;;;0.70;0.70;;;;;;;10.29;89.44;95074.06;4954245;28;20204;-84
2021/05/22 00:27:03;;;;;;;0.70;0.70;;;;;;;10.31;89.53;95076.44;4954336;28;20247;-86
2021/05/22 00:29:29;;;;;;;0.53;0.53;;;;;;;10.46;89.43;95086.63;4954164;28;20200;-83
2021/05/22 00:31:55;;;;;;;0.70;0.70;;;;;;;10.44;88.74;95073.94;4953217;28;20216;-88
2021/05/22 00:34:21;;;;;;;0.60;0.60;;;;;;;10.53;88.31;95072.84;4954410;28;20200;-86
2021/05/22 00:36:47;;;;;;;1.73;0.60;;;;;;;10.57;87.34;95060.38;4953699;28;20213;-86
2021/05/22 00:39:13;;;;;;;0.70;0.70;;;;;;;10.47;87.22;95044.47;4957312;28;20607;-88
2021/05/22 00:41:39;;;;;;;1.37;0.70;;;;;;;10.51;87.88;95058.56;4958230;28;20212;-88
2021/05/22 00:44:06;;;;;;;0.60;0.60;;;;;;;10.47;87.27;95054.78;4958255;28;20220;-89
2021/05/22 00:46:33;;;;;;;0.60;0.50;;;;;;;10.33;87.62;95051.31;4958134;28;20228;-88
2021/05/22 00:48:59;;;;;;;0.70;0.70;;;;;;;10.35;88.39;95049.38;4958438;28;20668;-89
2021/05/22 00:51:25;;;;;;;0.60;0.60;;;;;;;10.47;88.17;95060.72;4958114;28;20303;-89
2021/05/22 00:53:51;;;;;;;0.50;0.50;;;;;;;10.43;87.24;95061.25;4957609;28;20224;-88
2021/05/22 00:56:17;;;;;;;0.87;0.60;;;;;;;10.42;87.53;95055.31;4957571;28;20201;-88
2021/05/22 00:58:44;;;;;;;0.73;0.50;;;;;;;10.31;88.42;95061.00;4958094;28;20584;-88
2021/05/22 01:01:10;;;;;;;1.23;1.00;;;;;;;10.32;87.22;95076.25;4957414;29;20193;-88
2021/05/22 01:03:41;;;;;;;0.60;0.60;;;;;;;10.28;87.19;95063.94;4958031;28;20667;-88
2021/05/22 01:06:12;;;;;;;0.60;0.60;;;;;;;10.18;87.41;95064.25;4956956;28;20225;-88
2021/05/22 01:08:40;;;;;;;0.70;0.70;;;;;;;10.16;89.00;95080.84;4957308;28;20205;-88
2021/05/22 01:11:11;;;;;;;0.80;0.60;;;;;;;10.16;89.29;95084.22;4957244;28;20197;-89
2021/05/22 01:13:39;;;;;;;0.60;0.60;;;;;;;10.13;89.34;95056.28;4957271;28;20228;-89
2021/05/22 01:16:07;;;;;;;0.67;0.67;;;;;;;10.23;88.73;95017.41;4957386;28;20201;-89
2021/05/22 01:18:33;;;;;;;0.60;0.60;;;;;;;10.36;87.85;95026.00;4957690;28;20238;-85
2021/05/22 01:21:03;;;;;;;0.80;0.70;;;;;;;10.14;89.53;95032.16;4957271;28;20201;-85
2021/05/22 01:23:32;;;;;;;0.53;0.53;;;;;;;9.96;89.90;95029.25;4956489;28;20264;-86
2021/05/22 01:26:00;;;;;;;0.87;0.70;;;;;;;10.16;90.32;95040.50;4956538;28;20196;-88
2021/05/22 01:28:27;;;;;;;0.60;0.60;;;;;;;10.18;88.59;95055.75;4956983;28;20224;-84
2021/05/22 01:30:53;;;;;;;0.73;0.60;;;;;;;10.14;87.44;95052.75;4957177;28;20216;-87
2021/05/22 01:33:20;;;;;;;0.70;0.70;;;;;;;10.17;86.65;95054.16;4955638;28;20632;-88
2021/05/22 01:35:47;;;;;;;1.40;0.63;;;;;;;10.13;87.19;95056.28;4956640;28;20204;-87
2021/05/22 01:38:13;;;;;;;0.60;0.60;;;;;;;10.11;86.00;95065.97;4956568;28;20224;-88
2021/05/22 01:40:39;;;;;;;0.40;0.40;;;;;;;10.03;85.61;95053.22;4956537;29;20201;-90
2021/05/22 01:43:08;;;;;;;0.87;0.50;;;;;;;10.05;85.44;95048.69;4956101;29;20585;-87
2021/05/22 01:45:36;;;;;;;0.50;0.50;;;;;;;10.08;86.17;95040.63;4957005;28;20691;-85
2021/05/22 01:48:04;;;;;;;0.50;0.50;;;;;;;10.08;84.55;95032.91;4956321;29;20244;-85
2021/05/22 01:50:32;;;;;;;0.50;0.50;;;;;;;10.05;84.66;95038.41;4956250;28;20209;-87
2021/05/22 01:53:00;;;;;;;0.70;0.70;;;;;;;9.96;85.43;95019.78;4957149;28;20220;-88
2021/05/22 01:55:28;;;;;;;0.57;0.57;;;;;;;9.96;85.10;95011.25;4956576;28;20201;-87
2021/05/22 01:57:54;;;;;;;0.50;0.50;;;;;;;9.84;85.69;95021.22;4956579;28;20213;-86
2021/05/22 02:00:21;;;;;;;0.67;0.50;;;;;;;9.84;85.83;95021.22;4956473;28;20235;-86
2021/05/22 02:02:54;;;;;;;1.20;0.50;;;;;;;9.89;85.36;95024.06;4956342;28;20235;-86
2021/05/22 02:05:20;;;;;;;0.40;0.40;;;;;;;9.89;83.96;95029.19;4956227;28;20204;-87
2021/05/22 02:07:48;;;;;;;0.50;0.50;;;;;;;9.94;84.08;95008.88;4956588;28;20217;-85
2021/05/22 02:10:16;;;;;;;1.10;0.47;;;;;;;9.91;83.88;95016.94;4956361;28;20477;-86
2021/05/22 02:12:43;;;;;;;0.60;0.60;;;;;;;9.87;83.96;95009.78;4957004;28;20225;-84
2021/05/22 02:15:12;;;;;;;0.40;0.40;;;;;;;9.87;83.53;95009.78;4956568;28;20365;-86
2021/05/22 02:17:41;;;;;;;6.53;0.50;;;;;;;9.80;84.36;95011.53;4956573;28;20193;-85
2021/05/22 02:20:09;;;;;;;0.53;0.50;;;;;;;9.82;84.28;95007.75;4956839;28;20205;-86
2021/05/22 02:22:38;;;;;;;0.60;0.50;;;;;;;9.75;85.10;95009.50;4955813;28;20216;-85
2021/05/22 02:25:05;;;;;;;0.50;0.50;;;;;;;9.75;84.51;95024.94;4955854;28;20813;-88
2021/05/22 02:27:32;;;;;;;0.50;0.50;;;;;;;9.73;85.93;95020.94;4956522;28;20221;-87
2021/05/22 02:29:58;;;;;;;0.60;0.40;;;;;;;9.86;85.49;95018.47;4955992;28;20208;-84
2021/05/22 02:32:25;;;;;;;1.70;0.50;;;;;;;9.75;85.21;95017.22;4955586;28;20237;-87
2021/05/22 02:34:54;;;;;;;0.73;0.60;;;;;;;9.76;86.38;95029.09;4956348;28;20208;-88
2021/05/22 02:37:25;;;;;;;0.60;0.60;;;;;;;9.75;85.28;95019.00;4956084;28;20203;-88
2021/05/22 02:39:53;;;;;;;2.23;0.50;;;;;;;9.79;86.56;95020.22;4955978;28;20213;-84
2021/05/22 02:42:21;;;;;;;0.60;0.60;;;;;;;9.84;84.61;94994.72;4955732;28;20603;-85
2021/05/22 02:44:51;;;;;;;0.50;0.50;;;;;;;9.83;83.87;94991.38;4955774;28;20205;-86
2021/05/22 02:47:19;;;;;;;0.50;0.50;;;;;;;9.84;84.42;95002.44;4955462;29;20228;-88
2021/05/22 02:49:47;;;;;;;0.60;0.60;;;;;;;9.81;84.99;95019.06;4955039;29;20228;-87
2021/05/22 02:52:17;;;;;;;0.50;0.50;;;;;;;9.87;83.75;95030.34;4955230;28;20225;-86
2021/05/22 02:54:45;;;;;;;0.47;0.47;;;;;;;9.98;83.75;95035.00;4955142;28;20244;-85
2021/05/22 02:57:12;;;;;;;0.47;0.47;;;;;;;10.05;83.78;95031.50;4955784;28;20204;-87
2021/05/22 02:59:39;;;;;;;1.93;0.60;;;;;;;10.09;82.80;95031.13;4955104;28;20257;-84
2021/05/22 03:02:07;;;;;;;0.50;0.50;;;;;;;10.14;81.87;95039.09;4953406;28;20768;-86
2021/05/22 03:04:34;;;;;;;1.40;0.50;;;;;;;10.09;81.80;95044.78;4954153;29;20205;-87
2021/05/22 03:07:01;;;;;;;0.50;0.50;;;;;;;10.09;81.76;95041.41;4954707;28;20781;-87
2021/05/22 03:09:28;;;;;;;0.50;0.50;;;;;;;10.11;81.53;95042.03;4954191;28;20213;-86
2021/05/22 03:11:55;;;;;;;0.57;0.57;;;;;;;10.10;81.80;95043.00;4953919;28;20229;-86
2021/05/22 03:14:21;;;;;;;0.57;0.57;;;;;;;9.96;81.92;95044.69;4954565;28;20201;-86
2021/05/22 03:16:47;;;;;;;0.70;0.43;;;;;;;9.82;81.50;95045.53;4955263;28;20197;-84
2021/05/22 03:19:12;;;;;;;0.50;0.50;;;;;;;9.95;82.05;95037.94;4955219;29;20205;-88
2021/05/22 03:21:39;;;;;;;0.80;0.50;;;;;;;9.95;81.72;95025.88;4954167;28;20320;-88
2021/05/22 03:24:06;;;;;;;0.50;0.50;;;;;;;10.01;81.62;95025.13;4953949;28;20271;-86
2021/05/22 03:26:33;;;;;;;0.50;0.50;;;;;;;10.16;80.54;95029.41;4954112;28;20203;-85
2021/05/22 03:28:59;;;;;;;0.60;0.60;;;;;;;10.13;79.76;95022.84;4954527;28;20212;-86
2021/05/22 03:31:25;;;;;;;0.50;0.50;;;;;;;10.19;80.08;95023.91;4954082;28;20220;-86
2021/05/22 03:33:51;;;;;;;1.37;0.50;;;;;;;10.17;79.72;95038.72;4953503;28;20728;-85
2021/05/22 03:36:17;;;;;;;0.60;0.60;;;;;;;10.21;79.62;95045.88;4953779;28;20205;-83
2021/05/22 03:38:43;;;;;;;0.53;0.53;;;;;;;10.20;79.57;95041.72;4954101;29;20189;-85
2021/05/22 03:41:09;;;;;;;0.50;0.50;;;;;;;10.25;78.96;95021.38;4954193;28;20204;-87
2021/05/22 03:43:35;;;;;;;0.57;0.57;;;;;;;10.36;78.70;95017.50;4953343;28;20213;-85
2021/05/22 03:46:02;;;;;;;0.50;0.50;;;;;;;10.28;77.59;95015.06;4954496;28;20638;-86
2021/05/22 03:48:28;;;;;;;0.67;0.50;;;;;;;10.26;78.18;95014.44;4953432;28;20711;-85
2021/05/22 03:50:55;;;;;;;0.70;0.70;;;;;;;10.26;77.72;95017.81;4953298;28;20196;-87
2021/05/22 03:53:21;;;;;;;0.70;0.70;;;;;;;10.41;78.34;95006.63;4953492;28;20217;-87
2021/05/22 03:55:47;;;;;;;0.50;0.50;;;;;;;10.38;77.87;95018.09;4954013;28;20587;-87
2021/05/22 03:58:13;;;;;;;0.50;0.50;;;;;;;10.41;77.59;95017.72;4953605;28;20220;-86
2021/05/22 04:00:40;;;;;;;0.40;0.40;;;;;;;10.48;77.25;95023.69;4954724;28;20260;-86
2021/05/22 04:03:06;;;;;;;0.60;0.60;;;;;;;10.50;77.62;95023.50;4954151;28;20315;-85
2021/05/22 04:05:33;;;;;;;0.50;0.50;;;;;;;10.50;76.72;95021.72;4954126;28;20220;-84
2021/05/22 04:08:00;;;;;;;0.60;0.60;;;;;;;10.42;76.47;95026.22;4954661;28;20244;-87
2021/05/22 04:10:26;;;;;;;0.53;0.53;;;;;;;10.48;77.29;95031.41;4955497;28;20263;-87
2021/05/22 04:12:52;;;;;;;0.50;0.50;;;;;;;10.45;76.84;95041.28;4954210;28;20221;-88
2021/05/22 04:15:18;;;;;;;0.60;0.60;;;;;;;10.50;76.86;95044.91;4955215;28;20272;-88
2021/05/22 04:17:45;;;;;;;0.83;0.60;;;;;;;10.48;78.81;95046.88;4954446;28;20228;-86
2021/05/22 04:20:12;;;;;;;0.50;0.50;;;;;;;10.61;77.60;95053.84;4954997;28;20208;-88
2021/05/22 04:22:38;;;;;;;0.60;0.60;;;;;;;10.61;77.78;95067.53;4954527;28;20225;-87
2021/05/22 04:25:05;;;;;;;0.73;0.60;;;;;;;10.59;78.05;95066.13;4955109;28;20201;-88
2021/05/22 04:27:31;;;;;;;0.60;0.60;;;;;;;10.57;77.24;95058.63;4954922;28;20220;-88
2021/05/22 04:29:56;;;;;;;0.63;0.60;;;;;;;10.58;77.16;95060.19;4954458;28;20204;-84
2021/05/22 04:32:22;;;;;;;0.60;0.60;;;;;;;10.57;77.02;95065.53;4953072;28;20242;-83
2021/05/22 04:34:49;;;;;;;0.50;0.50;;;;;;;10.53;77.30;95067.69;4954839;28;20209;-85
2021/05/22 04:37:15;;;;;;;0.70;0.70;;;;;;;10.53;77.86;95078.00;4954245;28;20208;-84
2021/05/22 04:39:41;;;;;;;0.73;0.70;;;;;;;10.52;77.37;95065.31;4954503;28;20847;-86
2021/05/22 04:42:08;;;;;;;0.60;0.60;;;;;;;10.40;77.22;95054.72;4954394;28;20232;-88
2021/05/22 04:44:34;;;;;;;0.83;0.60;;;;;;;10.46;78.06;95048.03;4955596;28;20287;-85
2021/05/22 04:47:00;;;;;;;0.60;0.60;;;;;;;10.54;77.28;95060.75;4954819;28;20228;-86
2021/05/22 04:49:27;;;;;;;0.60;0.60;;;;;;;10.59;76.96;95082.34;4954052;28;20244;-85
2021/05/22 04:51:55;;;;;;;0.70;0.70;;;;;;;10.65;77.91;95076.47;4953621;28;20231;-84
2021/05/22 04:54:21;;;;;;;0.60;0.60;;;;;;;10.70;77.17;95084.44;4954074;28;20252;-87
2021/05/22 04:56:47;;;;;;;0.60;0.60;;;;;;;10.75;76.85;95083.88;4953679;28;20212;-83
2021/05/22 04:59:13;;;;;;;0.50;0.50;;;;;;;10.76;75.67;95089.81;4953689;28;20572;-83
2021/05/22 05:01:40;;;;;;;0.70;0.70;;;;;;;10.76;75.52;95090.59;4953429;28;20240;-83
2021/05/22 05:04:06;;;;;;;0.60;0.60;;;;;;;10.79;75.75;95089.41;4953485;28;20229;-84
2021/05/22 05:06:32;;;;;;;0.70;0.70;;;;;;;10.73;75.35;95089.19;4953450;28;20201;-86
2021/05/22 05:08:59;;;;;;;0.73;0.53;;;;;;;10.71;75.65;95083.44;4953277;28;20233;-85
2021/05/22 05:11:25;;;;;;;0.53;0.53;;;;;;;10.66;75.41;95090.13;4953300;28;20229;-85
2021/05/22 05:13:51;;;;;;;0.50;0.50;;;;;;;10.73;76.40;95093.56;4953671;28;20201;-87
2021/05/22 05:16:17;;;;;;;0.60;0.60;;;;;;;10.82;76.62;95087.25;4953578;28;20205;-85
2021/05/22 05:18:43;;;;;;;1.10;0.60;;;;;;;10.87;76.21;95084.91;4952885;28;20213;-86
2021/05/22 05:21:10;;;;;;;0.60;0.60;;;;;;;10.90;76.08;95079.38;4953707;28;20715;-86
2021/05/22 05:23:36;;;;;;;0.60;0.60;;;;;;;10.88;75.07;95086.50;4953588;28;20193;-84
2021/05/22 05:26:04;;;;;;;0.50;0.50;;;;;;;10.90;75.41;95086.31;4957746;28;20204;-87
2021/05/22 05:28:30;;;;;;;0.60;0.60;;;;;;;10.98;74.75;95086.13;4953758;28;20224;-85
2021/05/22 05:30:56;;;;;;;0.70;0.70;;;;;;;10.98;74.20;95096.44;4956616;28;20204;-84
2021/05/22 05:33:22;;;;;;;0.60;0.60;;;;;;;10.88;72.94;95086.50;4955740;28;20236;-87
2021/05/22 05:35:49;;;;;;;0.60;0.60;;;;;;;10.86;73.72;95091.03;4956923;28;20636;-87
2021/05/22 05:38:15;;;;;;;0.70;0.60;;;;;;;10.96;74.34;95094.09;4956530;29;20296;-85
2021/05/22 05:40:41;;;;;;;0.67;0.60;;;;;;;10.86;73.66;95090.25;4954955;28;20201;-86
2021/05/22 05:43:10;;;;;;;1.03;0.70;;;;;;;10.96;73.95;95083.78;4956008;28;20450;-85
2021/05/22 05:45:36;;;;;;;0.60;0.53;;;;;;;11.01;73.55;95083.97;4956341;28;20287;-84
2021/05/22 05:48:02;;;;;;;1.40;0.60;;;;;;;10.96;73.13;95086.34;4956344;28;20225;-86
2021/05/22 05:50:30;;;;;;;0.67;0.67;;;;;;;10.87;72.73;95079.75;4955738;28;20205;-85
2021/05/22 05:52:56;;;;;;;0.97;0.70;;;;;;;10.89;73.34;95095.81;4954792;28;20221;-85
2021/05/22 05:55:22;;;;;;;1.10;0.60;;;;;;;10.91;74.15;95082.75;4956026;28;20705;-83
2021/05/22 05:57:48;;;;;;;0.50;0.50;;;;;;;10.85;73.50;95084.31;4955007;28;20532;-84
2021/05/22 06:00:15;;;;;;;2.73;0.73;;;;;;;10.97;73.20;95084.53;4955842;28;20205;-83
2021/05/22 06:02:41;;;;;;;0.50;0.50;;;;;;;10.93;73.35;95083.38;4955592;29;20224;-85
2021/05/22 06:05:09;;;;;;;0.90;0.70;;;;;;;11.02;73.39;95080.41;4956710;28;20204;-85
2021/05/22 06:07:35;;;;;;;0.80;0.70;;;;;;;11.17;73.53;95069.97;4955919;29;20220;-85
2021/05/22 06:10:01;;;;;;;0.70;0.60;;;;;;;11.27;73.02;95083.31;4955151;28;20256;-85
2021/05/22 06:12:27;;;;;;;0.70;0.70;;;;;;;11.28;71.82;95090.06;4954850;28;20264;-83
2021/05/22 06:14:56;;;;;;;1.77;0.70;;;;;;;11.41;72.38;95087.50;4955113;28;20255;-86
2021/05/22 06:17:23;;;;;;;0.60;0.60;;;;;;;11.47;71.95;95091.09;4955621;28;20205;-85
2021/05/22 06:19:49;;;;;;;0.67;0.67;;;;;;;11.32;71.69;95091.25;4955356;28;20213;-87
2021/05/22 06:22:15;;;;;;;1.10;0.63;;;;;;;11.40;72.60;95098.00;4954903;28;20232;-88
2021/05/22 06:24:41;;;;;;;1.33;0.70;;;;;;;11.53;72.61;95090.34;4956272;28;20564;-85
2021/05/22 06:27:07;;;;;;;0.70;0.70;;;;;;;11.52;72.77;95095.69;4955918;28;20372;-87
2021/05/22 06:29:33;;;;;;;1.27;0.63;;;;;;;11.48;71.94;95095.28;4955300;28;20212;-85
2021/05/22 06:31:59;;;;;;;1.77;0.70;;;;;;;11.55;72.42;95097.84;4954709;28;20252;-86
2021/05/22 06:34:26;;;;;;;0.80;0.80;;;;;;;11.53;72.64;95100.66;4956019;28;20200;-84
2021/05/22 06:36:53;;;;;;;0.77;0.77;;;;;;;11.54;72.26;95099.66;4955878;28;20205;-88
2021/05/22 06:39:19;;;;;;;0.60;0.60;;;;;;;11.68;71.97;95097.91;4955996;28;20209;-85
2021/05/22 06:41:45;;;;;;;1.00;0.90;;;;;;;11.76;71.65;95097.75;4955286;28;20572;-84
2021/05/22 06:44:17;;;;;;;0.70;0.70;;;;;;;11.84;71.71;95102.72;4955094;28;20641;-87
2021/05/22 06:46:49;;;;;;;1.63;0.83;;;;;;;11.77;70.63;95096.75;4955541;28;20687;-88
2021/05/22 06:49:16;;;;;;;0.93;0.63;;;;;;;11.87;70.95;95092.03;4955420;28;20209;-86
2021/05/22 06:51:43;;;;;;;0.83;0.70;;;;;;;11.93;70.52;95104.13;4955393;28;20733;-88
2021/05/22 06:54:10;;;;;;;2.27;0.80;;;;;;;12.00;70.35;95102.34;4955012;28;20575;-86
2021/05/22 06:56:36;;;;;;;1.70;0.70;;;;;;;12.07;70.40;95097.22;4955944;28;20506;-85
2021/05/22 06:59:02;;;;;;;1.13;1.10;;;;;;;12.22;70.89;95102.19;4956492;28;20256;-87
2021/05/22 07:01:28;;;;;;;2.43;0.97;;;;;;;12.35;70.71;95090.06;4959516;29;20225;-82
2021/05/22 07:03:55;;;;;;;1.67;0.77;;;;;;;12.40;69.81;95105.75;4960887;28;20201;-86
2021/05/22 07:06:23;;;;;;;3.07;0.87;;;;;;;12.48;70.06;95109.13;4960589;28;20310;-86
2021/05/22 07:08:50;;;;;;;1.53;1.03;;;;;;;12.55;68.98;95105.53;4960324;28;20217;-84
2021/05/22 07:11:17;;;;;;;2.13;1.10;;;;;;;12.65;68.17;95107.72;4959847;28;20200;-84
2021/05/22 07:13:43;;;;;;;1.60;0.80;;;;;;;12.80;67.97;95116.03;4958301;28;20743;-88
2021/05/22 07:16:09;;;;;;;2.10;0.90;;;;;;;12.91;68.96;95102.50;4958161;28;20205;-86
2021/05/22 07:18:35;;;;;;;3.30;1.07;;;;;;;12.88;65.95;95108.09;4955639;28;20739;-88
2021/05/22 07:21:00;;;;;;;3.47;1.10;;;;;;;12.95;68.62;95113.22;4954971;28;20216;-87
2021/05/22 07:23:27;;;;;;;3.73;1.00;;;;;;;13.19;67.97;95111.81;4957492;28;20228;-84
2021/05/22 07:25:53;;;;;;;2.30;1.13;;;;;;;13.50;65.58;95117.03;4957325;29;20200;-83
2021/05/22 07:28:19;;;;;;;1.97;1.10;;;;;;;13.53;62.07;95121.81;4955334;28;20237;-82
2021/05/22 07:30:45;;;;;;;2.37;0.90;;;;;;;13.28;61.26;95115.72;4953528;28;20233;-85
2021/05/22 07:33:13;;;;;;;1.00;0.90;;;;;;;13.23;62.87;95118.16;4953331;28;20256;-88
2021/05/22 07:35:39;;;;;;;4.33;1.30;;;;;;;13.18;61.16;95108.44;4953994;28;20668;-88
2021/05/22 07:38:05;;;;;;;2.33;1.27;;;;;;;13.14;62.35;95107.22;4954255;28;20277;-87
2021/05/22 07:40:31;;;;;;;2.63;1.10;;;;;;;13.23;60.85;95111.19;4953232;28;20728;-86
2021/05/22 07:42:58;;;;;;;2.90;1.40;;;;;;;13.24;58.46;95117.16;4953064;28;20228;-87
2021/05/22 07:45:24;;;;;;;3.83;1.27;;;;;;;13.38;58.48;95119.50;4953440;28;20217;-84
2021/05/22 07:47:50;;;;;;;4.10;1.40;;;;;;;13.44;58.30;95102.38;4953379;28;20232;-85
2021/05/22 07:50:16;;;;;;;1.87;1.10;;;;;;;13.57;59.75;95098.91;4954137;28;20285;-86
2021/05/22 07:52:42;;;;;;;2.20;1.03;;;;;;;13.48;56.15;95101.72;4952637;28;20279;-89
2021/05/22 07:55:10;;;;;;;3.13;1.20;;;;;;;13.51;57.88;95097.94;4954171;28;20197;-89
2021/05/22 07:57:37;;;;;;;2.20;1.17;;;;;;;13.65;56.58;95103.88;4952867;28;20252;-84
2021/05/22 08:00:05;;;;;;;3.20;1.10;;;;;;;13.70;56.67;95107.41;4953601;28;20215;-81
2021/05/22 08:02:31;;;;;;;2.17;1.20;;;;;;;13.70;57.00;95106.59;4953525;28;20225;-86
2021/05/22 08:04:57;;;;;;;3.47;1.30;;;;;;;13.77;57.26;95100.41;4953912;28;20218;-84
2021/05/22 08:07:23;;;;;;;1.57;1.17;;;;;;;13.70;55.48;95109.19;4952899;28;20609;-84
2021/05/22 08:09:49;;;;;;;2.20;1.10;;;;;;;13.83;54.39;95103.97;4953455;28;20616;-84
2021/05/22 08:12:15;;;;;;;2.00;1.33;;;;;;;14.09;55.51;95098.59;4952874;28;20224;-85
2021/05/22 08:14:41;;;;;;;3.80;1.23;;;;;;;14.02;53.42;95097.88;4953501;28;20208;-85
2021/05/22 08:17:08;;;;;;;2.67;1.30;;;;;;;14.02;52.44;95097.88;4953712;28;20197;-86
2021/05/22 08:19:34;;;;;;;2.57;1.20;;;;;;;14.12;52.85;95115.50;4952785;28;20353;-84
2021/05/22 08:21:59;;;;;;;2.03;1.10;;;;;;;14.13;54.30;95094.59;4952477;28;20221;-84
2021/05/22 08:24:25;;;;;;;2.30;0.90;;;;;;;14.34;52.71;95092.66;4953579;28;20201;-84
2021/05/22 08:26:52;;;;;;;4.63;1.13;;;;;;;14.71;53.46;95096.94;4952926;28;20220;-84
2021/05/22 08:29:18;;;;;;;2.07;1.30;;;;;;;14.82;51.40;95095.41;4953299;28;20225;-82
2021/05/22 08:31:44;;;;;;;2.83;1.10;;;;;;;14.73;50.75;95101.91;4951907;28;20221;-84
2021/05/22 08:34:10;;;;;;;3.03;1.20;;;;;;;14.92;51.26;95098.34;4952672;28;20228;-82
2021/05/22 08:36:36;;;;;;;3.30;1.50;;;;;;;15.07;49.08;95098.75;4953199;28;20274;-89
2021/05/22 08:39:04;;;;;;;2.27;1.03;;;;;;;15.15;47.68;95106.28;4953892;28;20685;-88
2021/05/22 08:41:33;;;;;;;3.07;1.13;;;;;;;15.16;47.99;95094.09;4952665;28;20239;-88
2021/05/22 08:44:01;;;;;;;4.30;1.37;;;;;;;15.20;48.93;95090.06;4952916;28;20706;-87
2021/05/22 08:46:27;;;;;;;3.40;1.10;;;;;;;14.91;47.87;95096.75;4953246;28;20204;-87
2021/05/22 08:48:54;;;;;;;3.17;1.10;;;;;;;14.99;49.06;95108.66;4953504;28;20220;-89
2021/05/22 08:51:21;;;;;;;4.90;1.20;;;;;;;14.71;48.18;95109.09;4953779;28;20243;-86
2021/05/22 08:53:47;;;;;;;4.53;1.07;;;;;;;14.91;48.21;95098.53;4953968;28;20208;-86
2021/05/22 08:56:13;;;;;;;1.87;1.10;;;;;;;15.10;47.65;95095.75;4953587;28;20625;-89
2021/05/22 08:58:39;;;;;;;3.60;0.83;;;;;;;15.38;46.30;95110.81;4953777;28;20218;-86
2021/05/22 09:01:06;;;;;;;3.23;1.43;;;;;;;15.30;47.21;95105.09;4957058;28;20285;-87
2021/05/22 09:03:32;;;;;;;3.27;1.07;;;;;;;14.93;47.65;95107.69;4956412;28;20815;-87
2021/05/22 09:06:04;;;;;;;2.43;0.97;;;;;;;15.17;47.83;95109.44;4958035;28;20255;-87
2021/05/22 09:08:32;;;;;;;2.17;1.07;;;;;;;15.53;48.59;95107.81;4956492;28;20260;-88
2021/05/22 09:11:01;;;;;;;1.43;1.00;;;;;;;15.57;46.82;95105.63;4955957;28;20197;-87
2021/05/22 09:13:29;;;;;;;2.73;1.23;;;;;;;15.65;46.84;95107.91;4955982;29;20228;-88
2021/05/22 09:15:57;;;;;;;3.07;1.47;;;;;;;15.46;47.21;95112.28;4956570;28;20213;-87
2021/05/22 09:18:25;;;;;;;2.97;0.80;;;;;;;15.41;47.42;95115.53;4955862;29;20227;-88
2021/05/22 09:20:55;;;;;;;1.80;0.90;;;;;;;15.31;48.27;95109.28;4956585;28;20235;-87
2021/05/22 09:23:23;;;;;;;1.60;1.17;;;;;;;15.25;47.43;95116.13;4955956;28;20315;-88
2021/05/22 09:25:51;;;;;;;3.60;0.90;;;;;;;15.56;46.97;95106.63;4956622;28;20271;-87
2021/05/22 09:28:19;;;;;;;1.97;1.00;;;;;;;15.22;46.71;95106.19;4957435;28;20216;-86
2021/05/22 09:30:49;;;;;;;1.67;0.90;;;;;;;14.99;47.42;95108.66;4956570;28;20553;-86
2021/05/22 09:33:17;;;;;;;2.17;1.20;;;;;;;14.83;47.59;95118.53;4955393;28;20240;-84
2021/05/22 09:35:52;;;;;;;3.27;1.20;;;;;;;14.85;48.18;95118.31;4956213;28;20208;-87
2021/05/22 09:38:20;;;;;;;1.90;1.00;;;;;;;14.84;48.54;95116.75;4956304;28;20365;-86
2021/05/22 09:40:47;;;;;;;2.40;1.10;;;;;;;14.68;48.28;95122.47;4956108;28;20204;-87
2021/05/22 09:43:18;;;;;;;2.33;1.00;;;;;;;14.58;48.43;95128.16;4955216;28;20236;-83
2021/05/22 09:45:46;;;;;;;1.97;1.00;;;;;;;14.47;48.33;95121.84;4956906;28;20251;-83
2021/05/22 09:48:17;;;;;;;4.73;1.50;;;;;;;14.66;48.03;95120.09;4957980;28;20228;-85
2021/05/22 09:50:45;;;;;;;3.20;1.00;;;;;;;14.85;48.42;95121.72;4951735;29;20197;-87
2021/05/22 09:53:26;;;;;;;2.00;0.90;;;;;;;14.73;47.23;95114.88;4956713;28;20228;-87
2021/05/22 09:56:13;;;;;;;2.03;1.00;;;;;;;14.70;47.89;95121.25;4937507;28;20205;-88
2021/05/22 09:58:41;;;;;;;1.40;1.00;;;;;;;14.59;47.31;95116.78;4955402;29;20276;-87
2021/05/22 10:01:08;;;;;;;1.23;0.93;;;;;;;14.68;47.64;95115.50;4957432;28;20200;-87
2021/05/22 10:03:34;;;;;;;1.77;0.80;;;;;;;14.67;47.68;95113.91;4955517;28;20212;-87
2021/05/22 10:06:00;;;;;;;2.00;1.10;;;;;;;14.64;47.82;95116.91;4956719;28;20204;-85
2021/05/22 10:08:26;;;;;;;2.10;0.90;;;;;;;14.93;47.88;95109.50;4957688;28;20257;-87
2021/05/22 10:10:56;;;;;;;1.77;0.93;;;;;;;15.08;48.29;95102.16;4958383;28;20216;-87
2021/05/22 10:13:23;;;;;;;2.17;1.10;;;;;;;15.19;48.43;95106.63;4956005;28;20225;-87
2021/05/22 10:15:52;;;;;;;1.37;0.73;;;;;;;15.07;48.32;95114.31;4958697;28;20205;-88
2021/05/22 10:18:19;;;;;;;2.90;0.90;;;;;;;14.97;48.50;95101.06;4960680;28;20207;-88
2021/05/22 10:20:46;;;;;;;1.57;1.10;;;;;;;15.02;48.42;95108.19;4958484;28;20204;-87
2021/05/22 10:23:12;;;;;;;1.67;0.97;;;;;;;15.08;49.49;95102.16;4955887;28;20217;-88
2021/05/22 10:25:38;;;;;;;3.47;1.30;;;;;;;15.45;49.49;95105.50;4956824;28;20702;-87
2021/05/22 10:28:07;;;;;;;1.97;1.00;;;;;;;15.49;47.58;95098.88;4955043;28;20632;-88
2021/05/22 10:30:34;;;;;;;2.10;0.90;;;;;;;15.43;46.97;95094.56;4956196;29;20263;-87
2021/05/22 10:33:02;;;;;;;3.07;0.80;;;;;;;15.25;47.67;95105.75;4954967;28;20236;-87
2021/05/22 10:35:28;;;;;;;1.73;1.10;;;;;;;15.68;47.30;95095.28;4954524;28;20311;-88
2021/05/22 10:37:55;;;;;;;2.37;1.23;;;;;;;16.13;46.17;95095.66;4956393;28;20212;-87
2021/05/22 10:40:30;;;;;;;3.60;1.80;;;;;;;16.43;44.07;95105.97;4955024;28;20204;-87
2021/05/22 10:42:57;;;;;;;3.27;1.13;;;;;;;16.76;44.83;95083.84;4954823;28;20333;-87
2021/05/22 10:45:27;;;;;;;1.75;0.90;;;;;;;17.04;43.39;95078.75;4955597;28;20207;-86
2021/05/22 10:47:54;;;;;;;2.22;1.00;;;;;;;17.21;43.24;95082.22;4956106;28;20232;-86
2021/05/22 10:50:35;;;;;;;3.92;1.55;;;;;;;17.48;42.97;95066.88;4956551;28;20624;-86
2021/05/22 10:53:21;;;;;;;3.47;1.40;;;;;;;17.46;41.54;95073.34;4955856;28;20276;-86
2021/05/22 10:56:04;;;;;;;0.90;0.90;;;;;;;17.65;41.95;95066.97;4956259;29;20212;-86
2021/05/22 10:58:30;;;;;;;1.25;1.00;;;;;;;17.97;42.54;95066.47;4956808;28;20733;-87
2021/05/22 11:01:30;;;;;;;2.05;0.90;;;;;;;18.03;41.06;95062.94;4957266;28;20205;-87
2021/05/22 11:04:25;;;;;;;1.65;1.02;;;;;;;18.02;40.78;95064.75;4955404;29;20696;-86
2021/05/22 11:06:54;;;;;;;1.40;0.90;;;;;;;18.17;40.49;95072.81;4956114;28;20197;-88
2021/05/22 11:09:51;;;;;;;2.42;1.33;;;;;;;18.05;39.53;95051.25;4955471;28;20256;-89
2021/05/22 11:12:43;;;;;;;7.63;1.13;;;;;;;17.95;40.03;95067.47;4935392;29;20225;-88
2021/05/22 11:15:40;;;;;;;4.68;1.20;;;;;;;17.99;41.94;95065.22;4940310;28;20296;-87
2021/05/22 11:18:07;;;;;;;2.03;0.73;;;;;;;17.60;40.49;95059.03;4931750;28;20232;-88
2021/05/22 11:20:33;;;;;;;1.27;0.73;;;;;;;17.43;41.77;95064.19;4954337;28;20205;-87
2021/05/22 11:23:01;;;;;;;1.00;0.90;;;;;;;17.48;42.37;95066.88;4953381;28;20224;-85
2021/05/22 11:25:45;;;;;;;2.53;1.10;;;;;;;17.42;42.48;95065.19;4954744;29;20208;-84
2021/05/22 11:28:18;;;;;;;1.80;0.93;;;;;;;17.16;40.79;95069.09;4954849;28;20244;-83
2021/05/22 11:30:46;;;;;;;2.47;1.10;;;;;;;17.39;41.48;95062.25;4954751;28;20284;-84
2021/05/22 11:33:28;;;;;;;1.42;0.70;;;;;;;17.50;41.12;95067.44;4952941;28;20240;-83
2021/05/22 11:35:57;;;;;;;1.75;0.73;;;;;;;17.81;41.43;95071.41;4954104;28;20224;-84